createdAt,value
2023-04-03T00:00:50.778Z,2.65
2023-04-03T00:03:18.813Z,3.10
2023-04-03T00:05:46.104Z,9.33
2023-04-03T00:08:12.592Z,3.22
2023-04-03T00:10:39.604Z,3.38
2023-04-03T00:13:07.778Z,3.75
2023-04-03T00:15:35.372Z,3.50
2023-04-03T00:18:02.312Z,3.10
2023-04-03T00:20:28.869Z,2.45
2023-04-03T00:22:55.632Z,4.43
2023-04-03T00:25:22.357Z,2.35
2023-04-03T00:27:48.768Z,3.08
2023-04-03T00:30:17.966Z,3.03
2023-04-03T00:32:44.448Z,3.80
2023-04-03T00:35:11.159Z,3.25
2023-04-03T00:37:37.708Z,2.97
2023-04-03T00:40:06.133Z,2.65
2023-04-03T00:42:32.495Z,2.60
2023-04-03T00:44:58.843Z,3.50
2023-04-03T00:47:26.141Z,4.28
2023-04-03T00:49:53.684Z,4.13
2023-04-03T00:52:23.761Z,4.03
2023-04-03T00:54:55.500Z,3.93
2023-04-03T00:57:23.433Z,3.58
2023-04-03T00:59:56.301Z,3.15
2023-04-03T01:02:22.689Z,2.65
2023-04-03T01:04:49.143Z,2.78
2023-04-03T01:07:28.822Z,4.00
2023-04-03T01:09:59.578Z,2.83
2023-04-03T01:12:27.729Z,2.50
2023-04-03T01:14:56.934Z,2.45
2023-04-03T01:17:31.726Z,3.25
2023-04-03T01:20:32.436Z,4.87
2023-04-03T01:23:10.887Z,3.90
2023-04-03T01:25:38.793Z,3.25
2023-04-03T01:28:07.471Z,3.72
2023-04-03T01:31:01.959Z,4.07
2023-04-03T01:33:28.460Z,2.30
2023-04-03T01:35:54.909Z,2.90
2023-04-03T01:38:21.606Z,5.20
2023-04-03T01:40:47.950Z,2.83
2023-04-03T01:43:14.330Z,3.25
2023-04-03T01:45:40.685Z,3.87
2023-04-03T01:48:07.139Z,3.03
2023-04-03T01:50:33.556Z,4.35
2023-04-03T01:52:59.991Z,2.90
2023-04-03T01:55:26.464Z,2.80
2023-04-03T01:57:52.857Z,4.57
2023-04-03T02:00:19.486Z,4.55
2023-04-03T02:02:45.911Z,2.15
2023-04-03T02:05:12.309Z,2.30
2023-04-03T02:07:38.668Z,2.20
2023-04-03T02:10:05.504Z,4.23
2023-04-03T02:12:31.887Z,2.90
2023-04-03T02:14:58.217Z,2.15
2023-04-03T02:17:24.667Z,3.58
2023-04-03T02:19:51.150Z,2.88
2023-04-03T02:22:17.565Z,3.73
2023-04-03T02:24:43.990Z,2.72
2023-04-03T02:27:10.496Z,3.08
2023-04-03T02:29:36.852Z,2.55
2023-04-03T02:32:03.294Z,3.60
2023-04-03T02:34:29.666Z,2.03
2023-04-03T02:36:56.040Z,2.42
2023-04-03T02:39:22.761Z,2.17
2023-04-03T02:41:49.100Z,2.30
2023-04-03T02:44:15.567Z,3.60
2023-04-03T02:46:42.020Z,3.33
2023-04-03T02:49:08.469Z,4.82
2023-04-03T02:51:34.825Z,2.40
2023-04-03T02:54:01.623Z,3.65
2023-04-03T02:56:28.362Z,2.97
2023-04-03T02:58:54.900Z,3.57
2023-04-03T03:01:21.288Z,2.40
2023-04-03T03:03:47.702Z,3.35
2023-04-03T03:06:17.482Z,2.15
2023-04-03T03:08:44.186Z,3.67
2023-04-03T03:11:11.335Z,6.10
2023-04-03T03:13:38.297Z,2.88
2023-04-03T03:16:05.508Z,3.17
2023-04-03T03:18:32.489Z,3.42
2023-04-03T03:21:00.271Z,4.00
2023-04-03T03:23:29.008Z,3.90
2023-04-03T03:25:57.388Z,2.20
2023-04-03T03:28:24.202Z,4.30
2023-04-03T03:30:50.683Z,6.88
2023-04-03T03:33:18.222Z,6.20
2023-04-03T03:35:45.084Z,6.60
2023-04-03T03:38:11.939Z,2.72
2023-04-03T03:40:38.635Z,2.78
2023-04-03T03:43:05.045Z,3.30
2023-04-03T03:45:32.135Z,4.43
2023-04-03T03:47:58.610Z,5.03
2023-04-03T03:50:25.432Z,3.95
2023-04-03T03:52:51.918Z,4.55
2023-04-03T03:55:18.698Z,4.28
2023-04-03T03:57:45.067Z,4.57
2023-04-03T04:00:11.918Z,5.17
2023-04-03T04:02:38.399Z,3.70
2023-04-03T04:05:05.296Z,4.78
2023-04-03T04:07:31.687Z,3.35
2023-04-03T04:09:58.045Z,3.63
2023-04-03T04:12:24.406Z,3.43
2023-04-03T04:14:50.748Z,3.92
2023-04-03T04:17:17.288Z,2.25
2023-04-03T04:19:43.645Z,3.90
2023-04-03T04:22:10.025Z,1.85
2023-04-03T04:24:38.417Z,3.57
2023-04-03T04:27:05.629Z,4.18
2023-04-03T04:29:36.525Z,3.65
2023-04-03T04:32:06.109Z,3.55
2023-04-03T04:34:32.529Z,4.05
2023-04-03T04:36:59.119Z,2.40
2023-04-03T04:39:25.627Z,3.03
2023-04-03T04:41:52.359Z,3.13
2023-04-03T04:44:18.844Z,3.50
2023-04-03T04:46:45.346Z,2.17
2023-04-03T04:49:11.852Z,3.47
2023-04-03T04:51:48.472Z,6.57
2023-04-03T04:54:17.977Z,2.75
2023-04-03T04:56:44.348Z,3.30
2023-04-03T04:59:10.936Z,3.67
2023-04-03T05:01:37.379Z,3.20
2023-04-03T05:04:03.937Z,4.72
2023-04-03T05:06:32.662Z,2.75
2023-04-03T05:08:59.545Z,3.20
2023-04-03T05:11:26.531Z,2.95
2023-04-03T05:13:53.130Z,3.93
2023-04-03T05:16:19.569Z,4.35
2023-04-03T05:18:46.088Z,3.88
2023-04-03T05:21:12.621Z,3.85
2023-04-03T05:23:39.068Z,4.10
2023-04-03T05:26:05.616Z,5.10
2023-04-03T05:28:32.616Z,3.95
2023-04-03T05:30:59.430Z,4.03
2023-04-03T05:33:27.251Z,5.65
2023-04-03T05:35:54.927Z,4.65
2023-04-03T05:38:21.497Z,5.73
2023-04-03T05:40:48.033Z,4.50
2023-04-03T05:43:14.485Z,3.97
2023-04-03T05:45:40.873Z,4.53
2023-04-03T05:48:07.363Z,4.53
2023-04-03T05:50:33.737Z,4.73
2023-04-03T05:53:00.838Z,3.65
2023-04-03T05:55:27.259Z,4.22
2023-04-03T05:57:53.671Z,3.25
2023-04-03T06:00:20.221Z,3.35
2023-04-03T06:02:46.782Z,5.63
2023-04-03T06:05:14.158Z,5.28
2023-04-03T06:07:40.807Z,1.75
2023-04-03T06:10:08.115Z,2.85
2023-04-03T06:12:34.494Z,2.67
2023-04-03T06:15:00.853Z,5.17
2023-04-03T06:17:28.039Z,3.03
2023-04-03T06:19:54.513Z,5.05
2023-04-03T06:22:20.903Z,2.20
2023-04-03T06:24:47.526Z,5.15
2023-04-03T06:27:13.947Z,4.40
2023-04-03T06:29:40.390Z,3.92
2023-04-03T06:32:07.061Z,4.35
2023-04-03T06:34:33.500Z,5.13
2023-04-03T06:37:00.015Z,4.32
2023-04-03T06:39:26.564Z,3.80
2023-04-03T06:41:53.046Z,4.38
2023-04-03T06:44:19.530Z,4.63
2023-04-03T06:46:47.448Z,2.95
2023-04-03T06:49:14.022Z,2.10
2023-04-03T06:51:40.705Z,2.80
2023-04-03T06:54:09.112Z,2.78
2023-04-03T06:56:35.792Z,2.97
2023-04-03T06:59:03.103Z,3.80
2023-04-03T07:01:30.911Z,4.22
2023-04-03T07:03:58.007Z,4.70
2023-04-03T07:06:24.453Z,2.33
2023-04-03T07:08:51.320Z,4.03
2023-04-03T07:11:17.845Z,2.90
2023-04-03T07:13:44.608Z,3.50
2023-04-03T07:16:11.302Z,3.37
2023-04-03T07:18:37.950Z,2.67
2023-04-03T07:21:04.832Z,4.70
2023-04-03T07:23:31.903Z,3.88
2023-04-03T07:25:58.274Z,2.28
2023-04-03T07:28:25.253Z,3.40
2023-04-03T07:31:04.439Z,2.92
2023-04-03T07:33:32.003Z,3.70
2023-04-03T07:35:59.354Z,4.03
2023-04-03T07:38:26.604Z,2.65
2023-04-03T07:40:53.733Z,3.30
2023-04-03T07:43:21.705Z,3.00
2023-04-03T07:45:51.618Z,5.38
2023-04-03T07:48:20.666Z,2.38
2023-04-03T07:50:47.285Z,3.55
2023-04-03T07:53:13.831Z,4.57
2023-04-03T07:55:44.022Z,4.05
2023-04-03T07:58:16.586Z,4.68
2023-04-03T08:00:43.095Z,8.13
2023-04-03T08:03:12.740Z,1.58
2023-04-03T08:05:41.726Z,3.07
2023-04-03T08:08:09.156Z,2.67
2023-04-03T08:10:35.682Z,2.50
2023-04-03T08:13:02.494Z,4.13
2023-04-03T08:15:28.915Z,3.03
2023-04-03T08:17:55.833Z,4.57
2023-04-03T08:20:22.408Z,3.65
2023-04-03T08:22:48.798Z,2.40
2023-04-03T08:25:15.564Z,2.78
2023-04-03T08:27:41.935Z,2.92
2023-04-03T08:30:09.817Z,5.97
2023-04-03T08:32:37.027Z,4.07
2023-04-03T08:35:05.620Z,4.03
2023-04-03T08:37:32.544Z,4.53
2023-04-03T08:39:59.268Z,2.97
2023-04-03T08:42:54.969Z,2.80
2023-04-03T08:45:46.413Z,4.00
2023-04-03T08:48:18.511Z,5.22
2023-04-03T08:50:49.839Z,7.05
2023-04-03T08:53:20.182Z,4.90
2023-04-03T08:55:49.480Z,3.00
2023-04-03T08:58:19.870Z,4.15
2023-04-03T09:01:05.988Z,4.07
2023-04-03T09:03:37.186Z,3.17
2023-04-03T09:06:06.918Z,2.25
2023-04-03T09:08:50.638Z,6.30
2023-04-03T09:11:37.320Z,2.65
2023-04-03T09:14:15.514Z,2.72
2023-04-03T09:17:04.238Z,3.03
2023-04-03T09:19:33.723Z,3.08
2023-04-03T09:22:17.451Z,3.43
2023-04-03T09:24:54.963Z,3.25
2023-04-03T09:27:21.320Z,3.65
2023-04-03T09:29:47.794Z,3.90
2023-04-03T09:32:29.849Z,3.80
2023-04-03T09:35:18.922Z,3.70
2023-04-03T09:37:49.868Z,3.03
2023-04-03T09:40:42.413Z,3.50
2023-04-03T09:43:17.525Z,4.90
2023-04-03T09:45:45.688Z,3.28
2023-04-03T09:48:16.196Z,3.43
2023-04-03T09:50:52.189Z,3.10
2023-04-03T09:53:39.956Z,3.20
2023-04-03T09:56:18.451Z,3.80
2023-04-03T09:58:51.319Z,4.15
2023-04-03T10:01:28.690Z,2.80
2023-04-03T10:04:13.280Z,2.63
2023-04-03T10:06:49.281Z,4.43
2023-04-03T10:09:24.658Z,2.58
2023-04-03T10:12:11.320Z,6.25
2023-04-03T10:14:41.408Z,2.87
2023-04-03T10:17:38.268Z,3.35
2023-04-03T10:20:10.535Z,3.03
2023-04-03T10:23:05.259Z,2.22
2023-04-03T10:26:13.991Z,3.83
2023-04-03T10:28:57.913Z,3.20
2023-04-03T10:31:34.617Z,3.88
2023-04-03T10:34:19.802Z,6.70
2023-04-03T10:37:43.456Z,6.70
2023-04-03T10:40:25.335Z,4.32
2023-04-03T10:43:03.388Z,4.40
2023-04-03T10:45:36.052Z,3.38
2023-04-03T10:48:44.401Z,3.45
2023-04-03T10:51:23.317Z,5.40
2023-04-03T10:54:23.198Z,2.90
2023-04-03T10:57:08.499Z,4.33
2023-04-03T10:59:53.327Z,3.97
2023-04-03T11:03:04.142Z,2.47
2023-04-03T11:05:48.982Z,2.08
2023-04-03T11:08:34.393Z,3.90
2023-04-03T11:11:06.606Z,3.03
2023-04-03T11:13:43.490Z,5.25
2023-04-03T11:16:16.985Z,3.75
2023-04-03T11:18:49.579Z,5.47
2023-04-03T11:21:33.343Z,3.67
2023-04-03T11:24:00.281Z,4.20
2023-04-03T11:26:33.447Z,2.72
2023-04-03T11:29:04.554Z,3.03
2023-04-03T11:31:39.156Z,5.28
2023-04-03T11:34:22.131Z,4.15
2023-04-03T11:36:52.842Z,3.50
2023-04-03T11:39:33.772Z,3.40
2023-04-03T11:42:34.599Z,5.57
2023-04-03T11:45:22.369Z,2.92
2023-04-03T11:47:53.679Z,4.22
2023-04-03T11:50:35.410Z,3.53
2023-04-03T11:53:42.945Z,2.90
2023-04-03T11:56:24.486Z,3.92
2023-04-03T11:59:06.049Z,3.45
2023-04-03T12:01:48.649Z,2.42
2023-04-03T12:04:17.858Z,3.13
2023-04-03T12:06:51.110Z,2.08
2023-04-03T12:09:26.462Z,2.85
2023-04-03T12:11:53.461Z,2.83
2023-04-03T12:14:25.153Z,2.33
2023-04-03T12:16:53.412Z,3.30
2023-04-03T12:19:41.358Z,4.00
2023-04-03T12:22:12.074Z,4.95
2023-04-03T12:24:41.858Z,4.13
2023-04-03T12:27:34.054Z,3.35
2023-04-03T12:30:12.149Z,3.63
2023-04-03T12:33:12.721Z,3.15
2023-04-03T12:36:09.901Z,4.10
2023-04-03T12:38:56.712Z,3.78
2023-04-03T12:41:40.669Z,3.00
2023-04-03T12:44:12.786Z,3.33
2023-04-03T12:46:50.860Z,3.13
2023-04-03T12:49:32.354Z,6.45
2023-04-03T12:51:59.708Z,2.72
2023-04-03T12:54:42.881Z,3.00
2023-04-03T12:57:12.771Z,3.40
2023-04-03T12:59:40.352Z,3.53
2023-04-03T13:02:20.641Z,3.10
2023-04-03T13:04:47.590Z,4.00
2023-04-03T13:07:29.593Z,3.03
2023-04-03T13:09:58.221Z,1.83
2023-04-03T13:12:24.610Z,3.40
2023-04-03T13:15:00.221Z,5.00
2023-04-03T13:17:27.217Z,2.42
2023-04-03T13:19:54.269Z,4.78
2023-04-03T13:22:39.973Z,3.20
2023-04-03T13:25:08.700Z,3.38
2023-04-03T13:27:35.923Z,5.25
2023-04-03T13:30:11.512Z,5.32
2023-04-03T13:32:37.931Z,4.55
2023-04-03T13:35:27.078Z,3.80
2023-04-03T13:37:59.053Z,2.03
2023-04-03T13:40:30.189Z,4.75
2023-04-03T13:43:19.118Z,3.42
2023-04-03T13:46:02.272Z,3.45
2023-04-03T13:48:37.545Z,3.00
2023-04-03T13:51:19.430Z,3.00
2023-04-03T13:54:07.269Z,2.28
2023-04-03T13:56:38.132Z,2.60
2023-04-03T13:59:10.523Z,3.13
2023-04-03T14:01:54.992Z,4.97
2023-04-03T14:04:28.788Z,6.85
2023-04-03T14:06:55.930Z,3.70
2023-04-03T14:09:25.498Z,2.67
2023-04-03T14:11:56.600Z,2.17
2023-04-03T14:14:28.524Z,4.87
2023-04-03T14:16:57.668Z,2.78
2023-04-03T14:19:27.752Z,2.53
2023-04-03T14:21:55.866Z,3.25
2023-04-03T14:24:23.565Z,4.20
2023-04-03T14:26:53.440Z,3.07
2023-04-03T14:29:21.473Z,3.65
2023-04-03T14:31:50.589Z,2.50
2023-04-03T14:34:18.432Z,3.53
2023-04-03T14:36:45.784Z,3.17
2023-04-03T14:39:18.316Z,4.47
2023-04-03T14:41:46.117Z,3.55
2023-04-03T14:44:12.955Z,2.65
2023-04-03T14:46:56.349Z,2.97
2023-04-03T14:49:27.442Z,3.22
2023-04-03T14:51:53.917Z,2.27
2023-04-03T14:54:26.281Z,2.47
2023-04-03T14:56:53.760Z,2.85
2023-04-03T14:59:22.356Z,2.30
2023-04-03T15:01:49.335Z,5.03
2023-04-03T15:04:18.222Z,2.63
2023-04-03T15:06:45.804Z,2.33
2023-04-03T15:09:24.262Z,2.67
2023-04-03T15:11:52.725Z,4.82
2023-04-03T15:14:29.855Z,2.08
2023-04-03T15:17:04.570Z,3.67
2023-04-03T15:19:36.883Z,3.00
2023-04-03T15:22:03.316Z,1.65
2023-04-03T15:24:29.858Z,2.92
2023-04-03T15:26:56.300Z,2.38
2023-04-03T15:29:22.755Z,3.17
2023-04-03T15:31:50.708Z,2.67
2023-04-03T15:34:18.028Z,2.95
2023-04-03T15:36:44.512Z,2.70
2023-04-03T15:39:10.993Z,3.67
2023-04-03T15:41:37.373Z,2.40
2023-04-03T15:44:03.729Z,2.78
2023-04-03T15:46:30.323Z,3.35
2023-04-03T15:48:56.766Z,1.60
2023-04-03T15:51:23.245Z,1.40
2023-04-03T15:53:49.608Z,4.80
2023-04-03T15:56:15.972Z,3.80
2023-04-03T15:58:42.398Z,3.65
2023-04-03T16:01:11.572Z,1.75
2023-04-03T16:03:39.892Z,4.10
2023-04-03T16:06:06.550Z,2.03
2023-04-03T16:08:32.930Z,3.75
2023-04-03T16:10:59.294Z,1.23
2023-04-03T16:13:25.917Z,2.10
2023-04-03T16:15:52.340Z,1.77
2023-04-03T16:18:19.454Z,3.83
2023-04-03T16:20:46.027Z,2.83
2023-04-03T16:23:12.804Z,2.45
2023-04-03T16:25:39.464Z,1.83
2023-04-03T16:28:06.173Z,2.63
2023-04-03T16:30:32.547Z,2.20
2023-04-03T16:32:58.969Z,2.10
2023-04-03T16:35:25.400Z,2.65
2023-04-03T16:37:51.764Z,2.53
2023-04-03T16:40:18.380Z,4.63
2023-04-03T16:42:44.750Z,3.57
2023-04-03T16:45:11.462Z,1.80
2023-04-03T16:47:38.104Z,2.05
2023-04-03T16:50:05.289Z,2.33
2023-04-03T16:52:31.741Z,3.80
2023-04-03T16:54:59.700Z,3.43
2023-04-03T16:57:26.176Z,2.33
2023-04-03T16:59:53.380Z,3.13
2023-04-03T17:02:25.705Z,5.93
2023-04-03T17:04:53.724Z,4.53
2023-04-03T17:07:21.044Z,2.03
2023-04-03T17:09:48.479Z,2.25
2023-04-03T17:12:15.409Z,2.90
2023-04-03T17:14:41.785Z,1.50
2023-04-03T17:17:08.950Z,4.90
2023-04-03T17:19:37.831Z,2.47
2023-04-03T17:22:04.335Z,7.90
2023-04-03T17:24:30.727Z,10.02
2023-04-03T17:26:57.124Z,5.22
2023-04-03T17:29:23.512Z,4.13
2023-04-03T17:31:49.914Z,5.93
2023-04-03T17:34:16.273Z,4.95
2023-04-03T17:36:42.768Z,3.90
2023-04-03T17:39:09.210Z,4.30
2023-04-03T17:41:35.918Z,2.72
2023-04-03T17:44:03.141Z,2.73
2023-04-03T17:46:30.929Z,4.22
2023-04-03T17:48:59.474Z,3.45
2023-04-03T17:51:26.444Z,5.03
2023-04-03T17:53:52.901Z,3.70
2023-04-03T17:56:23.021Z,2.43
2023-04-03T17:58:50.934Z,2.72
2023-04-03T18:01:32.251Z,3.55
2023-04-03T18:04:02.183Z,1.65
2023-04-03T18:06:32.054Z,2.05
2023-04-03T18:09:04.387Z,3.20
2023-04-03T18:11:31.182Z,1.73
2023-04-03T18:14:02.431Z,3.00
2023-04-03T18:16:29.334Z,2.47
2023-04-03T18:19:11.756Z,3.10
2023-04-03T18:21:42.327Z,2.20
2023-04-03T18:24:13.142Z,2.30
2023-04-03T18:26:42.053Z,3.65
2023-04-03T18:29:10.959Z,5.03
2023-04-03T18:31:40.417Z,3.05
2023-04-03T18:34:06.831Z,7.53
2023-04-03T18:36:33.215Z,4.15
2023-04-03T18:38:59.602Z,5.10
2023-04-03T18:41:30.865Z,5.18
2023-04-03T18:44:01.726Z,6.03
2023-04-03T18:46:28.242Z,3.20
2023-04-03T18:48:55.007Z,3.28
2023-04-03T18:51:21.880Z,2.00
2023-04-03T18:53:48.246Z,3.13
2023-04-03T18:56:14.806Z,2.60
2023-04-03T18:58:41.298Z,3.00
2023-04-03T19:01:07.866Z,3.35
2023-04-03T19:03:36.898Z,2.45
2023-04-03T19:06:04.622Z,3.90
2023-04-03T19:08:31.632Z,2.92
2023-04-03T19:10:58.180Z,3.07
2023-04-03T19:13:24.759Z,2.15
2023-04-03T19:15:52.043Z,3.97
2023-04-03T19:18:18.885Z,3.70
2023-04-03T19:20:45.240Z,2.42
2023-04-03T19:23:12.804Z,3.47
2023-04-03T19:25:39.709Z,4.93
2023-04-03T19:28:06.202Z,4.03
2023-04-03T19:30:32.663Z,4.68
2023-04-03T19:32:59.145Z,5.80
2023-04-03T19:35:25.841Z,8.50
2023-04-03T19:37:53.332Z,8.63
2023-04-03T19:40:19.721Z,10.95
2023-04-03T19:42:46.199Z,25.48
2023-04-03T19:45:14.985Z,27.70
2023-04-03T19:47:41.572Z,21.83
2023-04-03T19:50:08.268Z,21.55
2023-04-03T19:52:34.982Z,16.90
2023-04-03T19:55:01.337Z,10.25
2023-04-03T19:57:27.898Z,9.52
2023-04-03T19:59:54.262Z,7.80
2023-04-03T20:02:21.406Z,7.63
2023-04-03T20:04:48.013Z,6.88
2023-04-03T20:07:14.568Z,8.48
2023-04-03T20:09:41.622Z,6.10
2023-04-03T20:12:09.497Z,5.30
2023-04-03T20:14:37.561Z,4.65
2023-04-03T20:17:04.476Z,5.35
2023-04-03T20:19:32.017Z,4.40
2023-04-03T20:22:00.696Z,3.97
2023-04-03T20:24:28.728Z,6.30
2023-04-03T20:26:57.578Z,5.93
2023-04-03T20:29:25.825Z,2.80
2023-04-03T20:31:55.927Z,3.80
2023-04-03T20:34:22.517Z,4.78
2023-04-03T20:36:50.198Z,2.40
2023-04-03T20:39:18.869Z,4.97
2023-04-03T20:41:45.508Z,2.53
2023-04-03T20:44:12.039Z,5.90
2023-04-03T20:46:52.350Z,5.70
2023-04-03T20:49:20.870Z,4.67
2023-04-03T20:51:47.704Z,3.33
2023-04-03T20:54:14.627Z,4.55
2023-04-03T20:56:41.056Z,3.63
2023-04-03T20:59:08.289Z,5.65
2023-04-03T21:01:34.765Z,4.97
2023-04-03T21:04:11.334Z,3.80
2023-04-03T21:07:15.526Z,3.25
2023-04-03T21:10:19.141Z,2.58
2023-04-03T21:13:23.677Z,2.33
2023-04-03T21:15:51.822Z,2.43
2023-04-03T21:18:28.196Z,5.32
2023-04-03T21:20:55.445Z,2.67
2023-04-03T21:23:24.035Z,3.33
2023-04-03T21:25:50.443Z,2.50
2023-04-03T21:28:18.406Z,5.70
2023-04-03T21:30:45.168Z,4.18
2023-04-03T21:33:13.032Z,3.90
2023-04-03T21:35:39.935Z,2.15
2023-04-03T21:38:06.317Z,3.83
2023-04-03T21:40:32.811Z,2.97
2023-04-03T21:42:59.249Z,3.05
2023-04-03T21:45:25.602Z,3.90
2023-04-03T21:47:52.032Z,2.95
2023-04-03T21:50:19.222Z,2.92
2023-04-03T21:52:45.576Z,2.70
2023-04-03T21:55:12.435Z,2.55
2023-04-03T21:57:38.819Z,5.55
2023-04-03T22:00:10.745Z,2.13
2023-04-03T22:02:43.369Z,3.03
2023-04-03T22:05:09.876Z,1.60
2023-04-03T22:07:36.353Z,4.35
2023-04-03T22:10:02.834Z,2.60
2023-04-03T22:12:29.526Z,5.93
2023-04-03T22:14:56.007Z,2.75
2023-04-03T22:17:22.492Z,2.20
2023-04-03T22:19:48.847Z,2.85
2023-04-03T22:22:15.248Z,3.15
2023-04-03T22:24:41.670Z,3.17
2023-04-03T22:27:08.195Z,2.47
2023-04-03T22:29:34.533Z,5.57
2023-04-03T22:32:00.966Z,4.30
2023-04-03T22:34:27.500Z,11.80
2023-04-03T22:36:54.060Z,17.63
2023-04-03T22:39:20.873Z,11.73
2023-04-03T22:41:47.275Z,11.17
2023-04-03T22:48:01.249Z,3.80
2023-04-03T22:50:27.941Z,3.20
2023-04-03T22:52:54.303Z,3.92
2023-04-03T22:55:20.885Z,5.17
2023-04-03T22:57:48.096Z,4.70
2023-04-03T23:00:15.881Z,1.77
2023-04-03T23:02:42.508Z,3.50
2023-04-03T23:05:09.210Z,2.55
2023-04-03T23:07:35.694Z,3.73
2023-04-03T23:10:02.081Z,4.18
2023-04-03T23:12:28.439Z,2.10
2023-04-03T23:14:54.768Z,1.85
2023-04-03T23:17:21.310Z,1.98
2023-04-03T23:19:47.842Z,4.20
2023-04-03T23:22:14.983Z,3.00
2023-04-03T23:24:41.619Z,3.35
2023-04-03T23:27:07.995Z,3.33
2023-04-03T23:29:34.337Z,4.43
2023-04-03T23:32:00.706Z,3.00
2023-04-03T23:34:27.111Z,4.78
2023-04-03T23:36:53.469Z,3.53
2023-04-03T23:39:21.875Z,2.70
2023-04-03T23:41:49.077Z,3.42
2023-04-03T23:44:15.519Z,2.70
2023-04-03T23:46:42.096Z,3.05
2023-04-03T23:49:08.452Z,2.35
2023-04-03T23:51:36.308Z,6.78
2023-04-03T23:54:02.659Z,2.38
2023-04-03T23:56:31.321Z,2.63
2023-04-03T23:58:58.431Z,3.28
